sensor_id;sensor_type;location;lat;lon;timestamp;P1;durP1;ratioP1;P2;durP2;ratioP2
6537;SDS011;3302;52.508;13.454;2023-11-21T00:00:18;8.50;;;6.40;;
6537;SDS011;3302;52.508;13.454;2023-11-21T00:02:45;7.23;;;6.37;;
6537;SDS011;3302;52.508;13.454;2023-11-21T00:05:12;11.27;;;7.07;;
6537;SDS011;3302;52.508;13.454;2023-11-21T00:07:40;10.30;;;7.63;;
6537;SDS011;3302;52.508;13.454;2023-11-21T00:10:07;8.97;;;7.17;;
6537;SDS011;3302;52.508;13.454;2023-11-21T00:12:33;10.83;;;8.60;;
6537;SDS011;3302;52.508;13.454;2023-11-21T00:15:00;9.33;;;7.93;;
6537;SDS011;3302;52.508;13.454;2023-11-21T00:17:26;11.13;;;8.60;;
6537;SDS011;3302;52.508;13.454;2023-11-21T00:19:52;13.60;;;9.27;;
6537;SDS011;3302;52.508;13.454;2023-11-21T00:22:18;12.83;;;8.37;;
6537;SDS011;3302;52.508;13.454;2023-11-21T00:24:45;14.03;;;9.53;;
6537;SDS011;3302;52.508;13.454;2023-11-21T00:27:11;13.17;;;9.83;;
6537;SDS011;3302;52.508;13.454;2023-11-21T00:29:37;15.43;;;10.83;;
6537;SDS011;3302;52.508;13.454;2023-11-21T00:32:04;15.50;;;11.03;;
6537;SDS011;3302;52.508;13.454;2023-11-21T00:34:31;20.43;;;11.53;;
6537;SDS011;3302;52.508;13.454;2023-11-21T00:36:57;18.80;;;12.00;;
6537;SDS011;3302;52.508;13.454;2023-11-21T00:39:23;19.97;;;12.80;;
6537;SDS011;3302;52.508;13.454;2023-11-21T00:41:49;26.47;;;13.63;;
6537;SDS011;3302;52.508;13.454;2023-11-21T00:44:16;24.30;;;13.90;;
6537;SDS011;3302;52.508;13.454;2023-11-21T00:46:42;23.07;;;14.73;;
6537;SDS011;3302;52.508;13.454;2023-11-21T00:49:08;24.30;;;13.83;;
6537;SDS011;3302;52.508;13.454;2023-11-21T00:51:33;23.97;;;13.83;;
6537;SDS011;3302;52.508;13.454;2023-11-21T00:53:59;24.93;;;14.40;;
6537;SDS011;3302;52.508;13.454;2023-11-21T00:56:25;22.47;;;13.93;;
6537;SDS011;3302;52.508;13.454;2023-11-21T00:58:51;21.00;;;13.67;;
6537;SDS011;3302;52.508;13.454;2023-11-21T01:01:20;27.13;;;14.50;;
6537;SDS011;3302;52.508;13.454;2023-11-21T01:03:47;24.73;;;14.33;;
6537;SDS011;3302;52.508;13.454;2023-11-21T01:06:14;24.63;;;14.07;;
6537;SDS011;3302;52.508;13.454;2023-11-21T01:08:40;25.30;;;13.77;;
6537;SDS011;3302;52.508;13.454;2023-11-21T01:11:06;30.23;;;14.77;;
6537;SDS011;3302;52.508;13.454;2023-11-21T01:13:37;27.53;;;14.33;;
6537;SDS011;3302;52.508;13.454;2023-11-21T01:16:04;27.20;;;15.03;;
6537;SDS011;3302;52.508;13.454;2023-11-21T01:18:31;28.37;;;15.17;;
6537;SDS011;3302;52.508;13.454;2023-11-21T01:20:58;27.77;;;15.87;;
6537;SDS011;3302;52.508;13.454;2023-11-21T01:23:27;26.93;;;15.70;;
6537;SDS011;3302;52.508;13.454;2023-11-21T01:25:55;30.03;;;17.10;;
6537;SDS011;3302;52.508;13.454;2023-11-21T01:28:21;31.13;;;16.97;;
6537;SDS011;3302;52.508;13.454;2023-11-21T01:30:48;34.87;;;17.87;;
6537;SDS011;3302;52.508;13.454;2023-11-21T01:33:14;38.13;;;19.23;;
6537;SDS011;3302;52.508;13.454;2023-11-21T01:35:41;36.80;;;19.60;;
6537;SDS011;3302;52.508;13.454;2023-11-21T01:38:07;40.43;;;19.13;;
6537;SDS011;3302;52.508;13.454;2023-11-21T01:40:34;40.77;;;20.23;;
6537;SDS011;3302;52.508;13.454;2023-11-21T01:43:00;40.10;;;19.63;;
6537;SDS011;3302;52.508;13.454;2023-11-21T01:45:27;43.93;;;20.33;;
6537;SDS011;3302;52.508;13.454;2023-11-21T01:47:54;40.50;;;18.33;;
6537;SDS011;3302;52.508;13.454;2023-11-21T01:50:20;38.33;;;17.77;;
6537;SDS011;3302;52.508;13.454;2023-11-21T01:52:47;32.53;;;16.80;;
6537;SDS011;3302;52.508;13.454;2023-11-21T01:55:14;35.77;;;16.00;;
6537;SDS011;3302;52.508;13.454;2023-11-21T01:57:43;34.70;;;14.77;;
6537;SDS011;3302;52.508;13.454;2023-11-21T02:00:11;36.87;;;16.13;;
6537;SDS011;3302;52.508;13.454;2023-11-21T02:02:47;29.67;;;14.30;;
6537;SDS011;3302;52.508;13.454;2023-11-21T02:05:17;28.70;;;13.73;;
6537;SDS011;3302;52.508;13.454;2023-11-21T02:07:44;25.70;;;11.97;;
6537;SDS011;3302;52.508;13.454;2023-11-21T02:10:13;26.17;;;12.30;;
6537;SDS011;3302;52.508;13.454;2023-11-21T02:12:40;28.73;;;12.80;;
6537;SDS011;3302;52.508;13.454;2023-11-21T02:15:12;26.07;;;12.50;;
6537;SDS011;3302;52.508;13.454;2023-11-21T02:17:45;21.73;;;11.23;;
6537;SDS011;3302;52.508;13.454;2023-11-21T02:20:16;23.20;;;11.00;;
6537;SDS011;3302;52.508;13.454;2023-11-21T02:22:44;22.33;;;11.50;;
6537;SDS011;3302;52.508;13.454;2023-11-21T02:25:23;26.03;;;13.03;;
6537;SDS011;3302;52.508;13.454;2023-11-21T02:27:54;25.73;;;12.13;;
6537;SDS011;3302;52.508;13.454;2023-11-21T02:30:21;26.93;;;12.17;;
6537;SDS011;3302;52.508;13.454;2023-11-21T02:32:48;23.93;;;11.30;;
6537;SDS011;3302;52.508;13.454;2023-11-21T02:35:14;24.33;;;11.63;;
6537;SDS011;3302;52.508;13.454;2023-11-21T02:37:41;21.87;;;11.43;;
6537;SDS011;3302;52.508;13.454;2023-11-21T02:40:08;20.77;;;10.90;;
6537;SDS011;3302;52.508;13.454;2023-11-21T02:42:37;20.27;;;10.97;;
6537;SDS011;3302;52.508;13.454;2023-11-21T02:45:03;21.10;;;10.77;;
6537;SDS011;3302;52.508;13.454;2023-11-21T02:47:30;20.17;;;10.53;;
6537;SDS011;3302;52.508;13.454;2023-11-21T02:49:56;15.63;;;9.43;;
6537;SDS011;3302;52.508;13.454;2023-11-21T02:52:22;14.20;;;9.30;;
6537;SDS011;3302;52.508;13.454;2023-11-21T02:54:47;15.77;;;8.07;;
6537;SDS011;3302;52.508;13.454;2023-11-21T02:57:13;12.77;;;7.90;;
6537;SDS011;3302;52.508;13.454;2023-11-21T02:59:39;14.17;;;9.43;;
6537;SDS011;3302;52.508;13.454;2023-11-21T03:02:05;13.07;;;8.93;;
6537;SDS011;3302;52.508;13.454;2023-11-21T03:04:34;14.27;;;9.33;;
6537;SDS011;3302;52.508;13.454;2023-11-21T03:07:00;13.50;;;9.13;;
6537;SDS011;3302;52.508;13.454;2023-11-21T03:09:26;14.50;;;9.43;;
6537;SDS011;3302;52.508;13.454;2023-11-21T03:11:52;10.63;;;8.40;;
6537;SDS011;3302;52.508;13.454;2023-11-21T03:14:19;12.87;;;9.47;;
6537;SDS011;3302;52.508;13.454;2023-11-21T03:16:45;14.20;;;8.83;;
6537;SDS011;3302;52.508;13.454;2023-11-21T03:19:11;10.40;;;8.47;;
6537;SDS011;3302;52.508;13.454;2023-11-21T03:21:37;11.13;;;7.90;;
6537;SDS011;3302;52.508;13.454;2023-11-21T03:24:03;9.10;;;7.60;;
6537;SDS011;3302;52.508;13.454;2023-11-21T03:26:29;11.60;;;8.33;;
6537;SDS011;3302;52.508;13.454;2023-11-21T03:28:55;10.87;;;7.90;;
6537;SDS011;3302;52.508;13.454;2023-11-21T03:31:21;11.00;;;8.37;;
6537;SDS011;3302;52.508;13.454;2023-11-21T03:33:47;10.57;;;8.23;;
6537;SDS011;3302;52.508;13.454;2023-11-21T03:36:13;9.90;;;7.80;;
6537;SDS011;3302;52.508;13.454;2023-11-21T03:38:40;8.80;;;7.57;;
6537;SDS011;3302;52.508;13.454;2023-11-21T03:41:07;10.30;;;7.53;;
6537;SDS011;3302;52.508;13.454;2023-11-21T03:43:35;10.83;;;7.80;;
6537;SDS011;3302;52.508;13.454;2023-11-21T03:46:02;8.17;;;6.80;;
6537;SDS011;3302;52.508;13.454;2023-11-21T03:48:28;9.50;;;7.40;;
6537;SDS011;3302;52.508;13.454;2023-11-21T03:50:54;10.20;;;6.90;;
6537;SDS011;3302;52.508;13.454;2023-11-21T03:53:19;8.23;;;6.13;;
6537;SDS011;3302;52.508;13.454;2023-11-21T03:55:45;10.53;;;7.70;;
6537;SDS011;3302;52.508;13.454;2023-11-21T03:58:11;10.47;;;8.00;;
6537;SDS011;3302;52.508;13.454;2023-11-21T04:00:37;11.57;;;7.73;;
6537;SDS011;3302;52.508;13.454;2023-11-21T04:03:04;9.77;;;6.70;;
6537;SDS011;3302;52.508;13.454;2023-11-21T04:05:30;8.37;;;6.80;;
6537;SDS011;3302;52.508;13.454;2023-11-21T04:07:56;8.80;;;7.13;;
6537;SDS011;3302;52.508;13.454;2023-11-21T04:10:22;9.83;;;7.27;;
6537;SDS011;3302;52.508;13.454;2023-11-21T04:12:48;7.70;;;6.47;;
6537;SDS011;3302;52.508;13.454;2023-11-21T04:15:14;8.37;;;6.37;;
6537;SDS011;3302;52.508;13.454;2023-11-21T04:17:40;8.13;;;6.73;;
6537;SDS011;3302;52.508;13.454;2023-11-21T04:20:07;7.67;;;6.27;;
6537;SDS011;3302;52.508;13.454;2023-11-21T04:22:43;8.13;;;6.60;;
6537;SDS011;3302;52.508;13.454;2023-11-21T04:25:10;8.93;;;7.00;;
6537;SDS011;3302;52.508;13.454;2023-11-21T04:27:38;8.43;;;6.27;;
6537;SDS011;3302;52.508;13.454;2023-11-21T04:30:06;7.33;;;5.27;;
6537;SDS011;3302;52.508;13.454;2023-11-21T04:32:32;6.97;;;4.97;;
6537;SDS011;3302;52.508;13.454;2023-11-21T04:34:58;6.13;;;4.87;;
6537;SDS011;3302;52.508;13.454;2023-11-21T04:37:24;6.73;;;4.70;;
6537;SDS011;3302;52.508;13.454;2023-11-21T04:39:50;5.27;;;4.60;;
6537;SDS011;3302;52.508;13.454;2023-11-21T04:42:17;6.90;;;5.40;;
6537;SDS011;3302;52.508;13.454;2023-11-21T04:44:42;5.93;;;4.80;;
6537;SDS011;3302;52.508;13.454;2023-11-21T04:47:09;6.13;;;5.10;;
6537;SDS011;3302;52.508;13.454;2023-11-21T04:49:35;8.50;;;5.60;;
6537;SDS011;3302;52.508;13.454;2023-11-21T04:52:01;6.67;;;4.97;;
6537;SDS011;3302;52.508;13.454;2023-11-21T04:54:29;7.90;;;5.73;;
6537;SDS011;3302;52.508;13.454;2023-11-21T04:56:55;8.03;;;5.93;;
6537;SDS011;3302;52.508;13.454;2023-11-21T04:59:22;8.17;;;5.73;;
6537;SDS011;3302;52.508;13.454;2023-11-21T05:01:50;5.57;;;4.43;;
6537;SDS011;3302;52.508;13.454;2023-11-21T05:04:16;7.20;;;5.37;;
6537;SDS011;3302;52.508;13.454;2023-11-21T05:06:42;7.20;;;4.70;;
6537;SDS011;3302;52.508;13.454;2023-11-21T05:09:07;7.20;;;4.73;;
6537;SDS011;3302;52.508;13.454;2023-11-21T05:11:37;6.80;;;4.90;;
6537;SDS011;3302;52.508;13.454;2023-11-21T05:14:03;5.93;;;4.53;;
6537;SDS011;3302;52.508;13.454;2023-11-21T05:16:30;6.00;;;4.73;;
6537;SDS011;3302;52.508;13.454;2023-11-21T05:18:56;5.77;;;4.70;;
6537;SDS011;3302;52.508;13.454;2023-11-21T05:21:26;6.07;;;4.70;;
6537;SDS011;3302;52.508;13.454;2023-11-21T05:23:52;6.57;;;4.97;;
6537;SDS011;3302;52.508;13.454;2023-11-21T05:26:18;7.10;;;4.70;;
6537;SDS011;3302;52.508;13.454;2023-11-21T05:28:43;6.23;;;4.93;;
6537;SDS011;3302;52.508;13.454;2023-11-21T05:31:09;6.50;;;4.80;;
6537;SDS011;3302;52.508;13.454;2023-11-21T05:33:36;6.33;;;4.37;;
6537;SDS011;3302;52.508;13.454;2023-11-21T05:36:02;6.33;;;4.90;;
6537;SDS011;3302;52.508;13.454;2023-11-21T05:38:28;7.13;;;5.33;;
6537;SDS011;3302;52.508;13.454;2023-11-21T05:40:54;9.40;;;5.13;;
6537;SDS011;3302;52.508;13.454;2023-11-21T05:43:20;7.07;;;4.80;;
6537;SDS011;3302;52.508;13.454;2023-11-21T05:45:46;7.43;;;4.90;;
6537;SDS011;3302;52.508;13.454;2023-11-21T05:48:12;5.90;;;4.03;;
6537;SDS011;3302;52.508;13.454;2023-11-21T05:50:37;6.47;;;4.53;;
6537;SDS011;3302;52.508;13.454;2023-11-21T05:53:03;6.53;;;4.80;;
6537;SDS011;3302;52.508;13.454;2023-11-21T05:55:30;7.07;;;5.03;;
6537;SDS011;3302;52.508;13.454;2023-11-21T05:57:56;6.67;;;4.83;;
6537;SDS011;3302;52.508;13.454;2023-11-21T06:00:22;6.30;;;4.50;;
6537;SDS011;3302;52.508;13.454;2023-11-21T06:02:50;6.17;;;4.60;;
6537;SDS011;3302;52.508;13.454;2023-11-21T06:05:21;7.20;;;5.10;;
6537;SDS011;3302;52.508;13.454;2023-11-21T06:07:49;7.23;;;5.60;;
6537;SDS011;3302;52.508;13.454;2023-11-21T06:10:16;6.90;;;5.27;;
6537;SDS011;3302;52.508;13.454;2023-11-21T06:12:44;6.67;;;5.40;;
6537;SDS011;3302;52.508;13.454;2023-11-21T06:15:10;6.57;;;4.97;;
6537;SDS011;3302;52.508;13.454;2023-11-21T06:17:40;6.83;;;5.37;;
6537;SDS011;3302;52.508;13.454;2023-11-21T06:20:07;7.50;;;5.23;;
6537;SDS011;3302;52.508;13.454;2023-11-21T06:22:44;8.43;;;4.97;;
6537;SDS011;3302;52.508;13.454;2023-11-21T06:25:11;7.37;;;4.83;;
6537;SDS011;3302;52.508;13.454;2023-11-21T06:27:39;6.27;;;4.60;;
6537;SDS011;3302;52.508;13.454;2023-11-21T06:30:09;6.43;;;5.00;;
6537;SDS011;3302;52.508;13.454;2023-11-21T06:32:37;7.60;;;5.50;;
6537;SDS011;3302;52.508;13.454;2023-11-21T06:35:05;7.07;;;5.27;;
6537;SDS011;3302;52.508;13.454;2023-11-21T06:37:31;8.50;;;6.13;;
6537;SDS011;3302;52.508;13.454;2023-11-21T06:39:58;7.07;;;5.67;;
6537;SDS011;3302;52.508;13.454;2023-11-21T06:42:25;7.23;;;5.47;;
6537;SDS011;3302;52.508;13.454;2023-11-21T06:44:51;6.60;;;4.90;;
6537;SDS011;3302;52.508;13.454;2023-11-21T06:47:17;5.60;;;4.93;;
6537;SDS011;3302;52.508;13.454;2023-11-21T06:49:45;5.67;;;4.50;;
6537;SDS011;3302;52.508;13.454;2023-11-21T06:52:13;5.77;;;4.43;;
6537;SDS011;3302;52.508;13.454;2023-11-21T06:54:39;5.23;;;4.37;;
6537;SDS011;3302;52.508;13.454;2023-11-21T06:57:05;6.07;;;4.47;;
6537;SDS011;3302;52.508;13.454;2023-11-21T06:59:30;6.77;;;4.60;;
6537;SDS011;3302;52.508;13.454;2023-11-21T07:01:57;6.53;;;4.70;;
6537;SDS011;3302;52.508;13.454;2023-11-21T07:04:23;5.53;;;4.63;;
6537;SDS011;3302;52.508;13.454;2023-11-21T07:06:51;5.50;;;4.30;;
6537;SDS011;3302;52.508;13.454;2023-11-21T07:09:20;5.73;;;4.53;;
6537;SDS011;3302;52.508;13.454;2023-11-21T07:11:53;5.47;;;4.13;;
6537;SDS011;3302;52.508;13.454;2023-11-21T07:14:19;5.03;;;4.20;;
6537;SDS011;3302;52.508;13.454;2023-11-21T07:16:45;5.70;;;4.10;;
6537;SDS011;3302;52.508;13.454;2023-11-21T07:19:12;6.10;;;3.80;;
6537;SDS011;3302;52.508;13.454;2023-11-21T07:21:38;5.47;;;3.93;;
6537;SDS011;3302;52.508;13.454;2023-11-21T07:24:04;5.90;;;3.70;;
6537;SDS011;3302;52.508;13.454;2023-11-21T07:26:31;5.00;;;3.80;;
6537;SDS011;3302;52.508;13.454;2023-11-21T07:28:59;6.43;;;4.50;;
6537;SDS011;3302;52.508;13.454;2023-11-21T07:31:25;4.63;;;3.40;;
6537;SDS011;3302;52.508;13.454;2023-11-21T07:33:51;4.47;;;3.70;;
6537;SDS011;3302;52.508;13.454;2023-11-21T07:36:18;4.83;;;3.83;;
6537;SDS011;3302;52.508;13.454;2023-11-21T07:38:46;5.20;;;3.53;;
6537;SDS011;3302;52.508;13.454;2023-11-21T07:41:11;4.43;;;3.53;;
6537;SDS011;3302;52.508;13.454;2023-11-21T07:43:41;4.70;;;3.83;;
6537;SDS011;3302;52.508;13.454;2023-11-21T07:46:07;4.87;;;3.67;;
6537;SDS011;3302;52.508;13.454;2023-11-21T07:48:34;4.20;;;3.50;;
6537;SDS011;3302;52.508;13.454;2023-11-21T07:51:01;5.30;;;3.70;;
6537;SDS011;3302;52.508;13.454;2023-11-21T07:53:28;4.03;;;3.23;;
6537;SDS011;3302;52.508;13.454;2023-11-21T07:55:55;6.23;;;4.00;;
6537;SDS011;3302;52.508;13.454;2023-11-21T07:58:22;5.20;;;3.87;;
6537;SDS011;3302;52.508;13.454;2023-11-21T08:00:49;4.47;;;3.30;;
6537;SDS011;3302;52.508;13.454;2023-11-21T08:03:15;4.50;;;3.50;;
6537;SDS011;3302;52.508;13.454;2023-11-21T08:05:42;4.97;;;3.83;;
6537;SDS011;3302;52.508;13.454;2023-11-21T08:08:08;6.77;;;3.90;;
6537;SDS011;3302;52.508;13.454;2023-11-21T08:10:34;6.33;;;4.20;;
6537;SDS011;3302;52.508;13.454;2023-11-21T08:13:02;7.80;;;4.43;;
6537;SDS011;3302;52.508;13.454;2023-11-21T08:15:29;6.07;;;4.23;;
6537;SDS011;3302;52.508;13.454;2023-11-21T08:17:57;5.23;;;3.67;;
6537;SDS011;3302;52.508;13.454;2023-11-21T08:20:24;6.67;;;3.73;;
6537;SDS011;3302;52.508;13.454;2023-11-21T08:22:50;5.57;;;3.93;;
6537;SDS011;3302;52.508;13.454;2023-11-21T08:25:18;11.97;;;5.70;;
6537;SDS011;3302;52.508;13.454;2023-11-21T08:27:45;6.53;;;4.17;;
6537;SDS011;3302;52.508;13.454;2023-11-21T08:30:11;10.00;;;4.70;;
6537;SDS011;3302;52.508;13.454;2023-11-21T08:32:39;8.97;;;5.07;;
6537;SDS011;3302;52.508;13.454;2023-11-21T08:35:07;9.97;;;5.20;;
6537;SDS011;3302;52.508;13.454;2023-11-21T08:37:33;10.47;;;5.10;;
6537;SDS011;3302;52.508;13.454;2023-11-21T08:40:03;8.70;;;5.07;;
6537;SDS011;3302;52.508;13.454;2023-11-21T08:42:33;8.33;;;4.97;;
6537;SDS011;3302;52.508;13.454;2023-11-21T08:44:59;10.53;;;5.10;;
6537;SDS011;3302;52.508;13.454;2023-11-21T08:47:25;11.00;;;5.87;;
6537;SDS011;3302;52.508;13.454;2023-11-21T08:49:52;8.70;;;5.43;;
6537;SDS011;3302;52.508;13.454;2023-11-21T08:52:18;9.30;;;5.30;;
6537;SDS011;3302;52.508;13.454;2023-11-21T08:54:48;9.10;;;5.43;;
6537;SDS011;3302;52.508;13.454;2023-11-21T08:57:24;9.17;;;4.97;;
6537;SDS011;3302;52.508;13.454;2023-11-21T08:59:50;9.63;;;5.03;;
6537;SDS011;3302;52.508;13.454;2023-11-21T09:02:22;10.03;;;5.17;;
6537;SDS011;3302;52.508;13.454;2023-11-21T09:04:48;9.50;;;4.90;;
6537;SDS011;3302;52.508;13.454;2023-11-21T09:07:16;9.40;;;5.47;;
6537;SDS011;3302;52.508;13.454;2023-11-21T09:09:41;9.67;;;5.83;;
6537;SDS011;3302;52.508;13.454;2023-11-21T09:12:07;11.10;;;5.30;;
6537;SDS011;3302;52.508;13.454;2023-11-21T09:14:37;11.63;;;5.70;;
6537;SDS011;3302;52.508;13.454;2023-11-21T09:17:04;10.73;;;5.10;;
6537;SDS011;3302;52.508;13.454;2023-11-21T09:19:36;9.00;;;4.67;;
6537;SDS011;3302;52.508;13.454;2023-11-21T09:22:05;10.77;;;4.77;;
6537;SDS011;3302;52.508;13.454;2023-11-21T09:24:32;9.80;;;4.80;;
6537;SDS011;3302;52.508;13.454;2023-11-21T09:26:58;8.37;;;4.77;;
6537;SDS011;3302;52.508;13.454;2023-11-21T09:29:25;10.10;;;4.80;;
6537;SDS011;3302;52.508;13.454;2023-11-21T09:31:52;8.57;;;4.37;;
6537;SDS011;3302;52.508;13.454;2023-11-21T09:34:21;8.77;;;4.27;;
6537;SDS011;3302;52.508;13.454;2023-11-21T09:36:47;8.40;;;4.30;;
6537;SDS011;3302;52.508;13.454;2023-11-21T09:39:14;7.93;;;4.00;;
6537;SDS011;3302;52.508;13.454;2023-11-21T09:41:49;6.57;;;3.63;;
6537;SDS011;3302;52.508;13.454;2023-11-21T09:44:20;4.27;;;3.00;;
6537;SDS011;3302;52.508;13.454;2023-11-21T09:46:54;5.20;;;3.17;;
6537;SDS011;3302;52.508;13.454;2023-11-21T09:49:24;3.27;;;2.50;;
6537;SDS011;3302;52.508;13.454;2023-11-21T09:51:51;4.53;;;2.97;;
6537;SDS011;3302;52.508;13.454;2023-11-21T09:54:21;5.30;;;3.10;;
6537;SDS011;3302;52.508;13.454;2023-11-21T09:56:47;5.20;;;2.70;;
6537;SDS011;3302;52.508;13.454;2023-11-21T09:59:16;3.47;;;2.10;;
6537;SDS011;3302;52.508;13.454;2023-11-21T10:01:42;6.13;;;2.50;;
6537;SDS011;3302;52.508;13.454;2023-11-21T10:04:08;5.10;;;2.50;;
6537;SDS011;3302;52.508;13.454;2023-11-21T10:06:41;4.07;;;2.10;;
6537;SDS011;3302;52.508;13.454;2023-11-21T10:09:09;2.70;;;1.90;;
6537;SDS011;3302;52.508;13.454;2023-11-21T10:11:40;1.70;;;1.50;;
6537;SDS011;3302;52.508;13.454;2023-11-21T10:14:12;2.67;;;1.50;;
6537;SDS011;3302;52.508;13.454;2023-11-21T10:16:40;3.63;;;1.77;;
6537;SDS011;3302;52.508;13.454;2023-11-21T10:19:10;2.43;;;1.80;;
6537;SDS011;3302;52.508;13.454;2023-11-21T10:21:37;2.60;;;1.90;;
6537;SDS011;3302;52.508;13.454;2023-11-21T10:24:04;2.73;;;2.00;;
6537;SDS011;3302;52.508;13.454;2023-11-21T10:26:31;2.57;;;1.90;;
6537;SDS011;3302;52.508;13.454;2023-11-21T10:28:59;2.30;;;1.77;;
6537;SDS011;3302;52.508;13.454;2023-11-21T10:31:31;2.97;;;1.93;;
6537;SDS011;3302;52.508;13.454;2023-11-21T10:34:13;3.07;;;2.20;;
6537;SDS011;3302;52.508;13.454;2023-11-21T10:36:40;2.20;;;2.00;;
6537;SDS011;3302;52.508;13.454;2023-11-21T10:39:06;5.33;;;2.30;;
6537;SDS011;3302;52.508;13.454;2023-11-21T10:41:32;2.73;;;2.20;;
6537;SDS011;3302;52.508;13.454;2023-11-21T10:44:00;3.70;;;2.27;;
6537;SDS011;3302;52.508;13.454;2023-11-21T10:46:31;2.60;;;2.20;;
6537;SDS011;3302;52.508;13.454;2023-11-21T10:48:58;3.10;;;2.07;;
6537;SDS011;3302;52.508;13.454;2023-11-21T10:51:23;3.00;;;2.00;;
6537;SDS011;3302;52.508;13.454;2023-11-21T10:53:51;3.00;;;2.27;;
6537;SDS011;3302;52.508;13.454;2023-11-21T10:56:18;3.90;;;2.60;;
6537;SDS011;3302;52.508;13.454;2023-11-21T10:58:47;11.63;;;8.10;;
6537;SDS011;3302;52.508;13.454;2023-11-21T11:01:14;4.47;;;2.37;;
6537;SDS011;3302;52.508;13.454;2023-11-21T11:03:43;3.27;;;2.60;;
6537;SDS011;3302;52.508;13.454;2023-11-21T11:06:10;3.47;;;2.60;;
6537;SDS011;3302;52.508;13.454;2023-11-21T11:08:37;4.23;;;3.10;;
6537;SDS011;3302;52.508;13.454;2023-11-21T11:11:07;5.30;;;3.33;;
6537;SDS011;3302;52.508;13.454;2023-11-21T11:13:35;4.27;;;3.13;;
6537;SDS011;3302;52.508;13.454;2023-11-21T11:16:03;5.00;;;2.60;;
6537;SDS011;3302;52.508;13.454;2023-11-21T11:18:33;4.93;;;3.50;;
6537;SDS011;3302;52.508;13.454;2023-11-21T11:21:14;6.47;;;3.13;;
6537;SDS011;3302;52.508;13.454;2023-11-21T11:24:13;4.30;;;3.67;;
6537;SDS011;3302;52.508;13.454;2023-11-21T11:35:17;3.53;;;2.83;;
6537;SDS011;3302;52.508;13.454;2023-11-21T11:37:49;5.83;;;2.93;;
6537;SDS011;3302;52.508;13.454;2023-11-21T11:40:15;3.13;;;2.80;;
6537;SDS011;3302;52.508;13.454;2023-11-21T11:42:57;3.33;;;2.97;;
6537;SDS011;3302;52.508;13.454;2023-11-21T11:45:34;3.47;;;2.63;;
6537;SDS011;3302;52.508;13.454;2023-11-21T11:48:01;2.97;;;2.30;;
6537;SDS011;3302;52.508;13.454;2023-11-21T11:50:29;3.47;;;2.73;;
6537;SDS011;3302;52.508;13.454;2023-11-21T11:52:55;2.80;;;2.50;;
6537;SDS011;3302;52.508;13.454;2023-11-21T11:55:38;2.77;;;2.50;;
6537;SDS011;3302;52.508;13.454;2023-11-21T11:58:05;4.53;;;3.10;;
6537;SDS011;3302;52.508;13.454;2023-11-21T12:02:59;2.90;;;2.53;;
6537;SDS011;3302;52.508;13.454;2023-11-21T12:05:28;2.90;;;2.50;;
6537;SDS011;3302;52.508;13.454;2023-11-21T12:08:02;3.23;;;2.93;;
6537;SDS011;3302;52.508;13.454;2023-11-21T12:10:32;2.77;;;2.47;;
6537;SDS011;3302;52.508;13.454;2023-11-21T12:13:01;2.90;;;2.60;;
6537;SDS011;3302;52.508;13.454;2023-11-21T12:15:35;2.90;;;2.60;;
6537;SDS011;3302;52.508;13.454;2023-11-21T12:18:02;2.90;;;2.60;;
6537;SDS011;3302;52.508;13.454;2023-11-21T12:20:29;3.30;;;2.50;;
6537;SDS011;3302;52.508;13.454;2023-11-21T12:22:57;2.67;;;2.37;;
6537;SDS011;3302;52.508;13.454;2023-11-21T12:25:30;3.20;;;2.40;;
6537;SDS011;3302;52.508;13.454;2023-11-21T12:28:00;3.70;;;2.63;;
6537;SDS011;3302;52.508;13.454;2023-11-21T12:30:33;2.70;;;2.10;;
6537;SDS011;3302;52.508;13.454;2023-11-21T12:33:03;3.17;;;2.33;;
6537;SDS011;3302;52.508;13.454;2023-11-21T12:35:32;2.60;;;2.03;;
6537;SDS011;3302;52.508;13.454;2023-11-21T12:37:59;3.60;;;2.23;;
6537;SDS011;3302;52.508;13.454;2023-11-21T12:40:28;3.23;;;1.70;;
6537;SDS011;3302;52.508;13.454;2023-11-21T12:42:55;4.00;;;2.20;;
6537;SDS011;3302;52.508;13.454;2023-11-21T12:45:24;2.60;;;2.30;;
6537;SDS011;3302;52.508;13.454;2023-11-21T12:47:56;2.40;;;2.00;;
6537;SDS011;3302;52.508;13.454;2023-11-21T12:50:25;3.23;;;2.30;;
6537;SDS011;3302;52.508;13.454;2023-11-21T12:53:03;2.70;;;2.00;;
6537;SDS011;3302;52.508;13.454;2023-11-21T12:55:33;6.43;;;2.40;;
6537;SDS011;3302;52.508;13.454;2023-11-21T12:58:04;2.87;;;2.33;;
6537;SDS011;3302;52.508;13.454;2023-11-21T13:00:38;2.90;;;2.20;;
6537;SDS011;3302;52.508;13.454;2023-11-21T13:03:07;3.50;;;2.57;;
6537;SDS011;3302;52.508;13.454;2023-11-21T13:05:36;3.93;;;2.63;;
6537;SDS011;3302;52.508;13.454;2023-11-21T13:08:08;3.67;;;2.40;;
6537;SDS011;3302;52.508;13.454;2023-11-21T13:10:41;2.57;;;2.20;;
6537;SDS011;3302;52.508;13.454;2023-11-21T13:13:10;4.43;;;2.73;;
6537;SDS011;3302;52.508;13.454;2023-11-21T13:15:47;4.23;;;2.33;;
6537;SDS011;3302;52.508;13.454;2023-11-21T13:18:21;4.00;;;2.43;;
6537;SDS011;3302;52.508;13.454;2023-11-21T13:20:48;4.47;;;2.60;;
6537;SDS011;3302;52.508;13.454;2023-11-21T13:23:15;3.07;;;2.33;;
6537;SDS011;3302;52.508;13.454;2023-11-21T13:25:44;3.30;;;2.53;;
6537;SDS011;3302;52.508;13.454;2023-11-21T13:28:12;3.50;;;2.50;;
6537;SDS011;3302;52.508;13.454;2023-11-21T13:30:41;4.13;;;2.90;;
6537;SDS011;3302;52.508;13.454;2023-11-21T13:33:07;3.53;;;2.80;;
6537;SDS011;3302;52.508;13.454;2023-11-21T13:35:34;5.07;;;3.07;;
6537;SDS011;3302;52.508;13.454;2023-11-21T13:38:12;3.93;;;3.10;;
6537;SDS011;3302;52.508;13.454;2023-11-21T13:40:46;4.73;;;3.40;;
6537;SDS011;3302;52.508;13.454;2023-11-21T13:43:17;4.77;;;3.60;;
6537;SDS011;3302;52.508;13.454;2023-11-21T13:45:46;5.40;;;3.57;;
6537;SDS011;3302;52.508;13.454;2023-11-21T13:48:13;5.07;;;3.70;;
6537;SDS011;3302;52.508;13.454;2023-11-21T13:50:39;4.73;;;3.90;;
6537;SDS011;3302;52.508;13.454;2023-11-21T13:53:13;3.87;;;3.40;;
6537;SDS011;3302;52.508;13.454;2023-11-21T13:55:52;4.20;;;3.40;;
6537;SDS011;3302;52.508;13.454;2023-11-21T13:58:25;5.20;;;3.70;;
6537;SDS011;3302;52.508;13.454;2023-11-21T14:01:09;4.63;;;3.77;;
6537;SDS011;3302;52.508;13.454;2023-11-21T14:04:04;8.03;;;4.20;;
6537;SDS011;3302;52.508;13.454;2023-11-21T14:06:38;6.00;;;4.53;;
6537;SDS011;3302;52.508;13.454;2023-11-21T14:09:17;6.33;;;4.77;;
6537;SDS011;3302;52.508;13.454;2023-11-21T14:11:49;5.70;;;4.13;;
6537;SDS011;3302;52.508;13.454;2023-11-21T14:14:21;6.50;;;5.10;;
6537;SDS011;3302;52.508;13.454;2023-11-21T14:16:52;9.10;;;6.57;;
6537;SDS011;3302;52.508;13.454;2023-11-21T14:19:18;8.00;;;5.77;;
6537;SDS011;3302;52.508;13.454;2023-11-21T14:21:44;8.03;;;6.30;;
6537;SDS011;3302;52.508;13.454;2023-11-21T14:24:11;9.87;;;7.33;;
6537;SDS011;3302;52.508;13.454;2023-11-21T14:26:41;10.40;;;7.63;;
6537;SDS011;3302;52.508;13.454;2023-11-21T14:29:11;8.57;;;6.77;;
6537;SDS011;3302;52.508;13.454;2023-11-21T14:31:40;11.47;;;7.70;;
6537;SDS011;3302;52.508;13.454;2023-11-21T14:34:06;10.17;;;7.90;;
6537;SDS011;3302;52.508;13.454;2023-11-21T14:36:33;12.87;;;8.87;;
6537;SDS011;3302;52.508;13.454;2023-11-21T14:39:00;12.03;;;8.77;;
6537;SDS011;3302;52.508;13.454;2023-11-21T14:41:26;12.23;;;8.90;;
6537;SDS011;3302;52.508;13.454;2023-11-21T14:43:54;12.40;;;9.30;;
6537;SDS011;3302;52.508;13.454;2023-11-21T14:46:20;21.80;;;18.67;;
6537;SDS011;3302;52.508;13.454;2023-11-21T14:48:46;13.17;;;9.83;;
6537;SDS011;3302;52.508;13.454;2023-11-21T14:51:23;16.23;;;10.20;;
6537;SDS011;3302;52.508;13.454;2023-11-21T14:53:56;13.30;;;10.87;;
6537;SDS011;3302;52.508;13.454;2023-11-21T14:56:32;14.90;;;9.77;;
6537;SDS011;3302;52.508;13.454;2023-11-21T14:59:02;14.73;;;10.13;;
6537;SDS011;3302;52.508;13.454;2023-11-21T15:01:37;15.10;;;11.27;;
6537;SDS011;3302;52.508;13.454;2023-11-21T15:04:20;13.80;;;10.33;;
6537;SDS011;3302;52.508;13.454;2023-11-21T15:07:01;13.70;;;8.77;;
6537;SDS011;3302;52.508;13.454;2023-11-21T15:09:28;16.07;;;10.50;;
6537;SDS011;3302;52.508;13.454;2023-11-21T15:11:57;15.40;;;10.27;;